Terminal Aerodrome Forecast
Issued by NWS Mt. Holly, NJ

Home | Current Version | Previous Version | Text Only | Print | Product List | Glossary On
Versions: 1 2 3 4 5 6 7 8 9 10 11 12 13 14 15 16 17 18 19 20 21 22 23 24 25 26 27 28 29 30
000
FTUS41 KPHI 022111 AAB
TAFACY
TAF AMD
KACY 022111Z 0221/0318 36004KT 2SM -RA BKN005 OVC025
     FM022200 VRB03KT 3SM BR BKN008 OVC050
     FM030000 VRB02KT 6SM BR SCT005 BKN200
     FM030200 02002KT 3SM BR BKN200
     FM030600 01003KT 2SM BR BKN200
     FM031300 06005KT 5SM BR BKN200=

USA.gov is the U.S. government's official web portal to all federal, state and local government web resources and services.